Flight Track Log - Related Links

Times and Time Zones

All times are in EDT time to prevent confusion due to time zone crossing. See the ASQ5750 flight status page for this flight to view local times or setup timezone preferences in your user account.

Time Position Orientation Groundspeed Altitude Reporting Facility
EDT Latitude Longitude Course Direction KTS MPH feet Rate Location/Type
Sat 09:13:12 AM 41.9500 -87.9000 114° Southeast 168 193 1,600  Level Chicago TRACON
Sat 09:14:12 AM 41.9333 -87.8500 114° Southeast 217 250 4,100 2,466 Climbing Chicago TRACON
Sat 09:15:55 AM 41.9742 -87.6972 70° East 276 318 8,300 2,634 Climbing Chicago Center
Sat 09:16:56 AM 42.0158 -87.6083 58° Northeast 281 323 11,300 2,656 Climbing Chicago Center
Sat 09:17:57 AM 42.0608 -87.5147 57° Northeast 295 339 13,700 2,195 Climbing Chicago Center
Sat 09:18:59 AM 42.1078 -87.4175 57° Northeast 308 354 15,800 2,000 Climbing Chicago Center
Sat 09:20:00 AM 42.1675 -87.2939 57° Northeast 327 376 17,800 1,707 Climbing Chicago Center
Sat 09:21:02 AM 42.2200 -87.1869 56° Northeast 340 391 19,300 1,512 Climbing Chicago Center
Sat 09:22:03 AM 42.2728 -87.0747 58° Northeast 354 407 20,900 1,659 Climbing Chicago Center
Sat 09:23:05 AM 42.2836 -86.9428 84° East 358 412 22,700 1,610 Climbing Chicago Center
Sat 09:24:06 AM 42.2900 -86.8106 86° East 355 409 24,200 1,317 Climbing Chicago Center
Sat 09:25:08 AM 42.2942 -86.6744 88° East 361 415 25,400 1,073 Climbing Chicago Center
Sat 09:26:09 AM 42.3000 -86.5333 87° East 373 429 26,400 787 Climbing Chicago Center
Sat 09:27:10 AM 42.3058 -86.3681 87° East 385 443 27,000 293 Climbing Chicago Center
Sat 09:28:12 AM 42.3108 -86.2225 87° East 390 449 27,000  Level Chicago Center
Sat 09:29:13 AM 42.3156 -86.0786 87° East 387 445 27,000  Level Chicago Center
Sat 09:30:15 AM 42.3136 -85.9372 91° East 381 438 27,000  Level Chicago Center
Sat 09:31:16 AM 42.3117 -85.7989 91° East 374 430 27,000  Level Chicago Center
Sat 09:32:18 AM 42.3097 -85.6614 91° East 370 426 27,000  Level Chicago Center
Sat 09:33:19 AM 42.3081 -85.4958 91° East 370 426 27,000  Level Chicago Center
Sat 09:34:21 AM 42.3050 -85.3594 92° East 366 421 27,000  Level Chicago Center
Sat 09:35:09 AM 42.3067 -85.2614 89° East 371 427 27,000  Level Cleveland Center
Sat 09:36:09 AM 42.3039 -85.1236 92° East 365 420 27,000  Level Cleveland Center
Sat 09:37:09 AM 42.3008 -84.9858 92° East 365 420 27,000  Level Cleveland Center
Sat 09:38:09 AM 42.2997 -84.8481 91° East 365 420 27,000  Level Cleveland Center
Sat 09:39:09 AM 42.2944 -84.7100 93° East 370 426 27,000  Level Cleveland Center
Sat 09:40:09 AM 42.2867 -84.5719 94° East 370 426 27,000  Level Cleveland Center
Sat 09:41:09 AM 42.2894 -84.4344 88° East 370 426 27,000  Level Cleveland Center
Sat 09:42:09 AM 42.3083 -84.2981 79° East 365 420 27,000  Level Cleveland Center
Sat 09:43:09 AM 42.3272 -84.1642 79° East 365 420 27,000  Level Cleveland Center
Sat 09:44:09 AM 42.3481 -84.0278 78° East 370 426 27,000  Level Cleveland Center
Sat 09:45:09 AM 42.3667 -83.8911 80° East 370 426 27,000  Level Cleveland Center
Sat 09:46:09 AM 42.3850 -83.7600 79° East 370 426 27,000  Level Cleveland Center
Sat 09:47:09 AM 42.4036 -83.6175 80° East 370 426 27,000  Level Cleveland Center
Sat 09:48:09 AM 42.4094 -83.4658 87° East 365 420 27,000  Level Cleveland Center
Sat 09:49:09 AM 42.4169 -83.3283 86° East 365 420 27,000  Level Cleveland Center
Sat 09:50:09 AM 42.4200 -83.1989 88° East 365 420 27,000  Level Cleveland Center
Sat 09:51:09 AM 42.4256 -83.0472 87° East 365 420 27,000  Level Cleveland Center
Sat 09:52:09 AM 42.4306 -82.9069 87° East 365 420 27,000  Level Cleveland Center
Sat 09:53:09 AM 42.4353 -82.7664 87° East 365 420 27,000  Level Cleveland Center
Sat 09:54:09 AM 42.4400 -82.6258 87° East 365 420 27,000  Level Cleveland Center
Sat 09:55:09 AM 42.4444 -82.4853 87° East 365 420 27,000  Level Cleveland Center
Sat 09:56:09 AM 42.4489 -82.3447 87° East 365 420 27,000  Level Cleveland Center
Sat 09:57:09 AM 42.4508 -82.2039 89° East 365 420 27,000  Level Cleveland Center
Sat 09:58:09 AM 42.4569 -82.0633 87° East 365 420 27,000  Level Cleveland Center
Sat 09:59:09 AM 42.4586 -81.9200 89° East 365 420 27,000  Level Cleveland Center
Sat 10:00:09 AM 42.4603 -81.7792 89° East 365 420 27,000  Level Cleveland Center
Sat 10:01:09 AM 42.4658 -81.6358 87° East 372 428 27,000  Level Cleveland Center
Sat 10:02:09 AM 42.4692 -81.4922 88° East 372 428 27,000  Level Cleveland Center
Sat 10:03:09 AM 42.4700 -81.3517 89° East 377 434 27,000  Level Cleveland Center
Sat 10:04:09 AM 42.4731 -81.2053 88° East 377 434 27,000  Level Cleveland Center
Sat 10:05:09 AM 42.4758 -81.0731 88° East 377 434 27,000  Level Cleveland Center
Sat 10:06:09 AM 42.4764 -80.9294 90° East 380 437 27,000  Level Cleveland Center
Sat 10:07:09 AM 42.4789 -80.7886 89° East 380 437 27,000  Level Cleveland Center
Sat 10:08:09 AM 42.4831 -80.6394 88° East 388 447 27,000  Level Cleveland Center
Sat 10:09:09 AM 42.4853 -80.4986 89° East 377 434 27,000  Level Cleveland Center
Sat 10:10:09 AM 42.4850 -80.3383 90° East 382 440 27,000  Level Cleveland Center
Sat 10:11:09 AM 42.4886 -80.1947 88° East 387 445 27,000  Level Cleveland Center
Sat 10:12:09 AM 42.4986 -80.0508 85° East 382 440 27,000  Level Cleveland Center
Sat 10:13:09 AM 42.5083 -79.9017 85° East 387 445 27,000  Level Cleveland Center
Sat 10:14:09 AM 42.5219 -79.7747 82° East 387 445 27,000  Level Cleveland Center
Sat 10:15:09 AM 42.5314 -79.6281 85° East 387 445 27,000  Level Cleveland Center
Sat 10:16:09 AM 42.5383 -79.4869 86° East 387 445 27,000  Level Cleveland Center
Sat 10:17:09 AM 42.5472 -79.3431 85° East 387 445 27,000  Level Cleveland Center
Sat 10:18:09 AM 42.5542 -79.1992 86° East 387 445 27,000  Level Cleveland Center
Sat 10:19:09 AM 42.5625 -79.0525 86° East 387 445 27,000  Level Cleveland Center
Sat 10:20:09 AM 42.5711 -78.9142 85° East 381 438 27,000  Level Cleveland Center
Sat 10:21:09 AM 42.5814 -78.7700 84° East 381 438 27,000  Level Cleveland Center
Sat 10:22:09 AM 42.5875 -78.6261 87° East 381 438 27,000  Level Cleveland Center
Sat 10:23:09 AM 42.5953 -78.4847 86° East 381 438 27,000  Level Cleveland Center
Sat 10:24:09 AM 42.6011 -78.3436 87° East 381 438 27,000  Level Cleveland Center
Sat 10:25:09 AM 42.6086 -78.2022 86° East 381 438 27,000  Level Cleveland Center
Sat 10:26:09 AM 42.6161 -78.0608 86° East 376 433 27,000  Level Cleveland Center
Sat 10:27:09 AM 42.6233 -77.9194 86° East 376 433 27,000  Level Cleveland Center
Sat 10:28:09 AM 42.6281 -77.7639 88° East 369 425 27,000  Level Cleveland Center
Sat 10:29:09 AM 42.6389 -77.6225 84° East 369 425 27,000  Level Cleveland Center
Sat 10:30:09 AM 42.6458 -77.4808 86° East 369 425 27,000  Level Cleveland Center
Sat 10:31:40 AM 42.6517 -77.2825 88° East 377 434 27,000  Level Boston Center
Sat 10:32:40 AM 42.6575 -77.1389 87° East 377 434 27,000  Level Boston Center
Sat 10:33:40 AM 42.6633 -76.9981 87° East 377 434 27,000  Level Boston Center
Sat 10:34:40 AM 42.6711 -76.8544 86° East 377 434 27,000  Level Boston Center
Sat 10:35:40 AM 42.6744 -76.7133 88° East 377 434 27,000  Level Boston Center
Sat 10:36:40 AM 42.6797 -76.5725 87° East 377 434 27,000  Level Boston Center
Sat 10:37:40 AM 42.6867 -76.4317 86° East 377 434 27,000  Level Boston Center
Sat 10:38:40 AM 42.6917 -76.2878 87° East 383 441 27,000  Level Boston Center
Sat 10:39:40 AM 42.6964 -76.1469 87° East 383 441 27,000  Level Boston Center
Sat 10:40:40 AM 42.7011 -76.0031 87° East 383 441 27,000  Level Boston Center
Sat 10:41:40 AM 42.7033 -75.8589 89° East 383 441 27,000  Level Boston Center
Sat 10:42:40 AM 42.7075 -75.7150 88° East 383 441 27,000 -500 Level Boston Center
Sat 10:43:40 AM 42.7117 -75.5683 88° East 383 441 26,000 -1,600 Descending Boston Center
Sat 10:44:40 AM 42.7197 -75.4275 86° East 383 441 23,800 -2,100 Descending Boston Center
Sat 10:45:40 AM 42.7231 -75.2892 88° East 378 435 21,800 -2,050 Descending Boston Center
Sat 10:46:40 AM 42.7242 -75.1592 89° East 359 413 19,700 -1,850 Descending Boston Center
Sat 10:47:40 AM 42.7275 -75.0264 88° East 349 402 18,100 -1,850 Descending Boston Center
Sat 10:48:40 AM 42.7300 -74.9078 88° East 337 388 16,000 -2,000 Descending Boston Center
Sat 10:49:40 AM 42.7303 -74.7947 90° East 324 373 14,100 -2,286 Descending Boston Center
Sat 10:50:04 AM 42.7339 -74.7297 86° East 309 356 12,800 -2,600 Descending Boston Center
Sat 10:50:40 AM 42.7331 -74.6561 91° East 313 360 11,500 -1,479 Descending Boston Center
Sat 10:51:17 AM 42.7386 -74.5914 83° East 300 345 11,000 -500 Descending Boston Center
Sat 10:51:40 AM 42.7350 -74.5544 98° East 301 346 11,000 -295 Level Boston Center
Sat 10:52:18 AM 42.7322 -74.4808 93° East 298 343 10,700 -600 Descending Boston Center
Sat 10:52:40 AM 42.7267 -74.4356 99° East 296 341 10,400 -1,082 Descending Boston Center
Sat 10:53:19 AM 42.7194 -74.3731 99° East 262 302 9,600 -1,200 Descending Boston Center
Sat 10:53:40 AM 42.7158 -74.3475 101° East 272 313 9,200 -1,475 Descending Boston Center
Sat 10:54:20 AM 42.7064 -74.2767 100° East 250 288 8,100 -1,600 Descending Boston Center
Sat 10:54:40 AM 42.7028 -74.2425 98° East 257 296 7,600 -1,500 Descending Boston Center
Sat 10:55:20 AM 42.6956 -74.1831 99° East 250 288 6,600 -1,400 Descending Boston Center
Sat 10:55:40 AM 42.6917 -74.1603 103° East 251 289 6,200 -1,475 Descending Boston Center
Sat 10:56:21 AM 42.6822 -74.0953 101° East 244 281 5,100 -1,600 Descending Boston Center
Sat 10:56:40 AM 42.6786 -74.0639 99° East 246 283 4,600 -1,082 Descending Boston Center
Sat 10:57:22 AM 42.6667 -74.0100 107° East 228 262 4,000 -600 Descending Boston Center
Sat 10:57:40 AM 42.6608 -73.9844 107° East 233 268 4,000 -295 Level Boston Center
Sat 10:58:23 AM 42.6469 -73.9278 108° East 204 235 3,700 -600 Descending Boston Center
Sat 10:58:40 AM 42.6453 -73.9078 96° East 214 246 3,400 -1,082 Descending Boston Center
Sat 10:59:24 AM 42.6333 -73.8539 107° East 197 227 2,600 -800 Descending Boston Center
Sat 10:59:40 AM 42.6333 -73.8511 90° East 208 239 2,600 -600 Level Boston Center
Sat 11:00:24 AM 42.6528 -73.8036 61° Northeast 160 184 2,000 -743 Descending Boston Center
Sat 11:01:25 AM 42.6922 -73.8072 356° North 134 154 1,300 -787 Descending Boston Center
Sat 11:02:26 AM 42.7339 -73.8081 359° North 135 155 400 -885 Descending Boston Center

Login

Don't have an account? Register now (free) for customized features, flight alerts, and more!